Time;durP1;ratioP1;P1;durP2;ratioP2;P2;SDS_P1;SDS_P2;PMS_P1;PMS_P2;Temp;Humidity;BMP_temperature;BMP_pressure;BME280_temperature;BME280_humidity;BME280_pressure;Samples;Min_cycle;Max_cycle;Signal;HPM_P1;HPM_P2
2023/12/15 13:23:28;;;;;;;35.40;9.23;;;9.80;99.90;;;;;;5066985;28;20159;-65
2023/12/15 13:25:54;;;;;;;34.47;8.95;;;9.70;99.90;;;;;;5062094;28;20407;-64
2023/12/15 13:28:20;;;;;;;51.40;10.82;;;9.60;99.90;;;;;;5060294;28;20407;-64
2023/12/15 13:30:46;;;;;;;42.30;10.38;;;9.60;99.90;;;;;;5062047;28;20033;-64
2023/12/15 13:33:12;;;;;;;36.95;8.57;;;9.50;99.90;;;;;;5060484;28;20037;-65
2023/12/15 13:35:38;;;;;;;41.60;8.57;;;9.50;99.90;;;;;;5059648;28;20086;-65
2023/12/15 13:38:05;;;;;;;47.05;8.48;;;9.50;99.90;;;;;;5063503;28;20132;-65
2023/12/15 13:40:31;;;;;;;31.40;8.05;;;9.50;99.90;;;;;;5063683;28;20136;-65
2023/12/15 13:42:57;;;;;;;32.00;7.32;;;9.50;99.90;;;;;;5054587;28;20072;-65
2023/12/15 13:45:23;;;;;;;40.47;7.30;;;9.40;99.90;;;;;;5064626;28;20040;-65
2023/12/15 13:47:48;;;;;;;27.80;5.90;;;9.40;99.90;;;;;;5062688;28;20058;-65
2023/12/15 13:50:15;;;;;;;37.77;8.70;;;9.40;99.90;;;;;;5057291;28;20037;-65
2023/12/15 13:52:41;;;;;;;;;;;9.40;99.90;;;;;;5060971;28;20118;-65
2023/12/15 13:55:08;;;;;;;31.42;7.28;;;9.40;99.90;;;;;;5058643;28;19916;-65
2023/12/15 13:57:33;;;;;;;;;;;9.40;99.90;;;;;;5065298;28;20033;-65
2023/12/15 13:59:59;;;;;;;30.02;6.80;;;9.40;99.90;;;;;;5058890;28;20422;-65
2023/12/15 14:02:24;;;;;;;34.43;6.47;;;9.40;99.90;;;;;;5059714;28;20044;-65
2023/12/15 14:04:51;;;;;;;35.97;8.95;;;9.40;99.90;;;;;;5063342;28;20037;-65
2023/12/15 14:07:16;;;;;;;;;;;9.40;99.90;;;;;;5058470;28;20446;-65
2023/12/15 14:09:42;;;;;;;43.13;9.13;;;9.40;99.90;;;;;;5057217;28;19917;-65
2023/12/15 14:12:08;;;;;;;32.00;7.03;;;9.40;99.90;;;;;;5063779;28;20105;-64
2023/12/15 14:14:33;;;;;;;31.53;6.53;;;9.30;99.90;;;;;;5061492;28;20819;-65
2023/12/15 14:16:59;;;;;;;31.20;7.53;;;9.30;99.90;;;;;;5062211;28;20533;-65
2023/12/15 14:19:24;;;;;;;25.73;6.53;;;9.40;99.90;;;;;;5068122;28;20282;-65
2023/12/15 14:21:51;;;;;;;31.13;7.38;;;9.30;99.90;;;;;;5070222;28;20036;-64
2023/12/15 14:24:17;;;;;;;30.05;6.80;;;9.30;99.90;;;;;;5083615;28;20040;-65
2023/12/15 14:26:43;;;;;;;48.13;7.97;;;9.30;99.90;;;;;;5075472;28;20407;-64
2023/12/15 14:29:09;;;;;;;;;;;9.30;99.90;;;;;;5081536;28;20036;-64
2023/12/15 14:31:35;;;;;;;30.20;6.97;;;9.30;99.90;;;;;;5062737;28;19935;-64
2023/12/15 14:34:00;;;;;;;38.22;6.82;;;9.30;99.90;;;;;;5065026;28;20044;-64
2023/12/15 14:36:27;;;;;;;33.77;6.30;;;9.20;99.90;;;;;;5065694;28;20036;-64
2023/12/15 14:38:53;;;;;;;33.25;7.28;;;9.20;99.90;;;;;;5069325;28;20037;-64
2023/12/15 14:41:20;;;;;;;34.25;8.15;;;9.20;99.90;;;;;;5066969;28;20103;-64
2023/12/15 14:43:45;;;;;;;32.53;6.53;;;9.20;99.90;;;;;;5060864;28;20045;-64
2023/12/15 14:46:11;;;;;;;39.07;7.93;;;9.20;99.90;;;;;;5064030;28;20091;-65
2023/12/15 14:48:37;;;;;;;28.13;6.57;;;9.20;99.90;;;;;;5060675;28;20112;-64
2023/12/15 14:51:04;;;;;;;30.25;6.72;;;9.10;99.90;;;;;;5066271;28;20125;-64
2023/12/15 14:53:29;;;;;;;41.15;6.95;;;9.10;99.90;;;;;;5066866;28;20086;-64
2023/12/15 14:55:55;;;;;;;36.42;7.47;;;9.10;99.90;;;;;;5066928;28;20040;-64
2023/12/15 14:58:21;;;;;;;29.97;6.80;;;9.10;99.90;;;;;;5066380;28;20049;-64
2023/12/15 15:00:47;;;;;;;32.03;7.70;;;9.10;99.90;;;;;;5069358;28;20406;-64
2023/12/15 15:03:13;;;;;;;32.20;6.47;;;9.10;99.90;;;;;;5063631;28;20060;-64
2023/12/15 15:05:38;;;;;;;30.30;6.03;;;9.10;99.90;;;;;;5060834;28;20035;-64
2023/12/15 15:08:04;;;;;;;27.40;5.83;;;9.00;99.90;;;;;;5064040;28;20033;-64
2023/12/15 15:10:29;;;;;;;33.23;5.50;;;9.00;99.90;;;;;;5062254;28;20036;-64
2023/12/15 15:12:55;;;;;;;43.87;7.60;;;9.00;99.90;;;;;;5070390;28;20045;-64
2023/12/15 15:15:21;;;;;;;36.07;6.23;;;9.00;99.90;;;;;;5045343;28;20036;-64
2023/12/15 15:17:46;;;;;;;31.48;5.80;;;9.00;99.90;;;;;;5068390;28;20036;-64
2023/12/15 15:20:13;;;;;;;33.37;5.90;;;8.90;99.90;;;;;;5062485;28;20094;-64
2023/12/15 15:22:38;;;;;;;32.17;5.35;;;8.90;99.90;;;;;;5066912;28;20112;-64
2023/12/15 15:25:04;;;;;;;34.67;6.83;;;8.90;99.90;;;;;;5061337;28;20144;-64
2023/12/15 15:27:30;;;;;;;27.58;5.07;;;8.90;99.90;;;;;;5065486;28;20435;-64
2023/12/15 15:29:55;;;;;;;31.63;7.10;;;8.90;99.90;;;;;;5069764;28;20039;-64
2023/12/15 15:32:21;;;;;;;27.20;5.10;;;8.80;99.90;;;;;;5067651;28;20165;-64
2023/12/15 15:34:47;;;;;;;20.00;5.43;;;8.80;99.90;;;;;;5064651;28;20075;-63
2023/12/15 15:37:12;;;;;;;34.93;6.07;;;8.80;99.90;;;;;;5063332;28;20059;-64
2023/12/15 15:39:38;;;;;;;33.27;6.23;;;8.70;99.90;;;;;;5059542;28;20791;-64
2023/12/15 15:42:04;;;;;;;24.83;5.90;;;8.70;99.90;;;;;;5067158;28;20036;-64
2023/12/15 15:44:31;;;;;;;25.77;6.25;;;8.70;99.90;;;;;;5066334;28;20044;-63
2023/12/15 15:46:56;;;;;;;34.38;5.15;;;8.70;99.90;;;;;;5064110;28;20045;-63
2023/12/15 15:49:22;;;;;;;24.50;5.53;;;8.60;99.90;;;;;;5069365;28;20040;-63
2023/12/15 15:51:48;;;;;;;36.67;6.63;;;8.60;99.90;;;;;;5077234;28;20384;-63
2023/12/15 15:54:14;;;;;;;26.15;5.95;;;8.60;99.90;;;;;;5069968;28;20048;-65
2023/12/15 15:56:45;;;;;;;31.77;5.30;;;8.50;99.90;;;;;;5070120;28;20048;-64
2023/12/15 15:59:11;;;;;;;34.83;6.07;;;8.40;99.90;;;;;;5051803;28;20173;-64
2023/12/15 16:01:36;;;;;;;23.57;4.57;;;8.50;99.90;;;;;;5055224;28;20167;-63
2023/12/15 16:04:04;;;;;;;34.03;5.23;;;8.40;99.90;;;;;;5064455;28;20044;-64
2023/12/15 16:06:29;;;;;;;29.35;5.80;;;8.30;99.90;;;;;;5069234;28;20159;-64
2023/12/15 16:08:55;;;;;;;39.65;7.47;;;8.30;99.90;;;;;;5066942;28;20119;-64
2023/12/15 16:11:21;;;;;;;46.85;6.93;;;8.20;99.90;;;;;;5069979;28;20040;-64
2023/12/15 16:13:47;;;;;;;28.10;6.32;;;8.20;99.90;;;;;;5048981;28;20040;-64
2023/12/15 16:16:12;;;;;;;24.50;6.07;;;8.10;99.90;;;;;;5068347;28;20040;-65
2023/12/15 16:18:38;;;;;;;29.90;6.22;;;8.00;99.90;;;;;;5045486;28;20047;-64
2023/12/15 16:21:05;;;;;;;27.05;5.00;;;8.00;99.90;;;;;;5061370;28;20115;-64
2023/12/15 16:23:31;;;;;;;29.17;5.22;;;7.90;99.90;;;;;;5068072;28;20044;-64
2023/12/15 16:25:56;;;;;;;23.85;5.10;;;7.90;99.90;;;;;;5069488;28;20033;-65
2023/12/15 16:28:22;;;;;;;33.03;6.43;;;7.80;99.90;;;;;;5065592;28;20392;-64
2023/12/15 16:30:47;;;;;;;31.57;4.83;;;7.80;99.90;;;;;;5069355;28;20113;-64
2023/12/15 16:33:13;;;;;;;27.70;4.67;;;7.80;99.90;;;;;;5052376;28;20575;-64
2023/12/15 16:35:39;;;;;;;24.02;4.00;;;7.70;99.90;;;;;;5069316;28;20090;-65
2023/12/15 16:38:04;;;;;;;20.40;4.47;;;7.70;99.90;;;;;;5068934;28;20038;-64
2023/12/15 16:40:30;;;;;;;19.33;4.53;;;7.60;99.90;;;;;;5063098;28;20102;-64
2023/12/15 16:42:56;;;;;;;26.40;5.47;;;7.50;99.90;;;;;;5060259;28;20033;-64
2023/12/15 16:45:23;;;;;;;29.48;5.70;;;7.40;99.90;;;;;;5062571;28;20117;-64
2023/12/15 16:47:49;;;;;;;35.58;5.97;;;7.40;99.90;;;;;;5065398;28;20556;-64
2023/12/15 16:50:15;;;;;;;30.27;5.97;;;7.50;99.90;;;;;;5068734;28;20044;-64
2023/12/15 16:52:41;;;;;;;;;;;7.50;99.90;;;;;;5069092;28;20098;-64
2023/12/15 16:55:08;;;;;;;24.02;5.10;;;7.50;99.90;;;;;;5069207;28;19916;-64
2023/12/15 16:57:34;;;;;;;27.08;5.78;;;7.60;99.90;;;;;;5068845;28;20388;-63
2023/12/15 17:00:00;;;;;;;23.33;6.25;;;7.50;99.90;;;;;;5056283;28;20104;-63
2023/12/15 17:02:25;;;;;;;39.15;6.45;;;7.60;99.90;;;;;;5053292;28;20080;-64
2023/12/15 17:04:51;;;;;;;28.87;6.17;;;7.60;99.90;;;;;;5066614;28;20039;-64
2023/12/15 17:07:16;;;;;;;22.17;5.53;;;7.60;99.90;;;;;;5062186;28;20483;-64
2023/12/15 17:09:42;;;;;;;30.43;5.27;;;7.70;99.90;;;;;;5066044;28;20040;-63
2023/12/15 17:12:07;;;;;;;22.60;4.17;;;7.60;99.90;;;;;;5068683;28;20036;-63
2023/12/15 17:14:33;;;;;;;19.87;5.07;;;7.60;99.90;;;;;;5071061;28;20270;-64
2023/12/15 17:16:59;;;;;;;24.20;5.82;;;7.60;99.90;;;;;;5052309;28;20043;-65
2023/12/15 17:19:25;;;;;;;26.80;6.28;;;7.60;99.90;;;;;;5069067;28;20090;-64
2023/12/15 17:21:50;;;;;;;36.67;6.97;;;7.60;99.90;;;;;;5068959;28;20038;-64
2023/12/15 17:24:19;;;;;;;30.77;6.75;;;7.60;99.90;;;;;;5063496;28;20039;-64
2023/12/15 17:26:46;;;;;;;32.25;7.50;;;7.60;99.90;;;;;;5068597;28;20127;-64
2023/12/15 17:29:13;;;;;;;22.42;6.20;;;7.60;99.90;;;;;;5067395;28;20475;-64
2023/12/15 17:31:42;;;;;;;37.38;6.82;;;7.60;99.90;;;;;;5055558;28;20040;-64
2023/12/15 17:34:08;;;;;;;28.75;6.85;;;7.60;99.90;;;;;;5054108;28;20426;-64
2023/12/15 17:36:38;;;;;;;34.25;7.43;;;7.70;99.90;;;;;;5068393;28;20371;-64
2023/12/15 17:39:04;;;;;;;32.05;6.80;;;7.70;99.90;;;;;;5050087;28;20131;-63
2023/12/15 17:41:30;;;;;;;20.75;6.85;;;7.70;99.90;;;;;;5063077;28;20468;-64
2023/12/15 17:43:55;;;;;;;24.50;6.27;;;7.60;99.90;;;;;;5051865;28;20044;-65
2023/12/15 17:46:28;;;;;;;27.90;5.72;;;7.60;99.90;;;;;;5068699;28;20043;-65
2023/12/15 17:48:54;;;;;;;30.67;6.75;;;7.60;99.90;;;;;;5067592;28;20043;-64
2023/12/15 17:51:20;;;;;;;30.08;7.10;;;7.60;99.90;;;;;;5069483;28;20040;-65
2023/12/15 17:53:45;;;;;;;27.77;6.90;;;7.60;99.90;;;;;;5061557;28;20025;-64
2023/12/15 17:56:11;;;;;;;29.70;7.17;;;7.50;99.90;;;;;;5067575;28;20035;-64
2023/12/15 17:58:38;;;;;;;28.27;5.77;;;7.50;99.90;;;;;;5067440;28;20067;-64
2023/12/15 18:01:04;;;;;;;30.98;5.88;;;7.50;99.90;;;;;;5061277;28;20037;-64
2023/12/15 18:03:30;;;;;;;24.75;7.03;;;7.50;99.90;;;;;;5067448;28;20101;-64
2023/12/15 18:05:55;;;;;;;29.73;7.20;;;7.50;99.90;;;;;;5068501;28;20032;-64
2023/12/15 18:08:21;;;;;;;28.08;5.95;;;7.50;99.90;;;;;;5068053;28;20040;-64
2023/12/15 18:10:48;;;;;;;22.98;6.88;;;7.50;99.90;;;;;;5071959;28;20036;-64
2023/12/15 18:13:14;;;;;;;30.35;6.38;;;7.50;99.90;;;;;;5059502;28;20411;-64
2023/12/15 18:15:40;;;;;;;30.80;6.88;;;7.50;99.90;;;;;;5071981;28;20044;-64
2023/12/15 18:18:08;;;;;;;31.02;6.28;;;7.50;99.90;;;;;;5071739;28;20120;-64
2023/12/15 18:20:34;;;;;;;28.02;6.55;;;7.40;99.90;;;;;;5037151;28;20094;-64
2023/12/15 18:22:59;;;;;;;25.83;5.38;;;7.50;99.90;;;;;;5071271;28;20037;-64
2023/12/15 18:25:25;;;;;;;26.70;5.63;;;7.40;99.90;;;;;;5071144;28;20048;-64
2023/12/15 18:27:50;;;;;;;19.17;4.83;;;7.50;99.90;;;;;;5060568;28;20060;-64
2023/12/15 18:30:16;;;;;;;24.97;5.67;;;7.50;99.90;;;;;;5071519;28;20048;-63
2023/12/15 18:32:42;;;;;;;26.33;5.43;;;7.40;99.90;;;;;;5061435;28;20044;-65
2023/12/15 18:35:08;;;;;;;28.40;6.55;;;7.40;99.90;;;;;;5061994;28;20037;-63
2023/12/15 18:37:34;;;;;;;23.88;6.22;;;7.40;99.90;;;;;;5062805;28;20067;-63
2023/12/15 18:40:00;;;;;;;24.90;6.85;;;7.40;99.90;;;;;;5067098;28;20045;-65
2023/12/15 18:42:26;;;;;;;22.50;6.68;;;7.30;99.90;;;;;;5064356;28;20037;-65
2023/12/15 18:44:51;;;;;;;29.52;6.88;;;7.30;99.90;;;;;;5058431;28;20124;-63
2023/12/15 18:47:17;;;;;;;32.33;6.40;;;7.30;99.90;;;;;;5059164;28;20083;-63
2023/12/15 18:49:43;;;;;;;25.40;6.47;;;7.30;99.90;;;;;;5065391;28;20516;-64
2023/12/15 18:52:09;;;;;;;;;;;7.30;99.90;;;;;;5058903;28;20044;-65
2023/12/15 18:54:34;;;;;;;26.38;6.35;;;7.40;99.90;;;;;;5060120;28;19979;-63
2023/12/15 18:57:00;;;;;;;25.57;7.50;;;7.40;99.90;;;;;;5069819;28;20032;-64
2023/12/15 18:59:26;;;;;;;32.03;6.90;;;7.30;99.90;;;;;;5066334;28;20536;-63
2023/12/15 19:01:51;;;;;;;22.70;7.60;;;7.40;99.90;;;;;;5068658;28;20033;-64
2023/12/15 19:04:17;;;;;;;44.17;7.53;;;7.40;99.90;;;;;;5063818;28;20055;-65
2023/12/15 19:06:42;;;;;;;17.87;6.37;;;7.40;99.90;;;;;;5056925;28;20033;-64
2023/12/15 19:09:10;;;;;;;41.50;8.15;;;7.40;99.90;;;;;;5059196;28;20033;-64
2023/12/15 19:11:36;;;;;;;21.17;4.65;;;7.40;99.90;;;;;;5062333;28;20043;-64
2023/12/15 19:14:04;;;;;;;28.43;6.47;;;7.30;99.90;;;;;;5063365;28;20037;-64
2023/12/15 19:16:30;;;;;;;27.02;6.60;;;7.30;99.90;;;;;;5061649;28;20434;-64
2023/12/15 19:18:56;;;;;;;25.97;6.00;;;7.30;99.90;;;;;;5061684;28;20085;-64
2023/12/15 19:21:22;;;;;;;24.25;6.25;;;7.30;99.90;;;;;;5060747;28;20305;-64
2023/12/15 19:23:52;;;;;;;19.08;6.22;;;7.30;99.90;;;;;;5063313;28;20040;-63
2023/12/15 19:26:18;;;;;;;27.42;6.70;;;7.30;99.90;;;;;;5058855;28;20370;-64
2023/12/15 19:28:44;;;;;;;19.25;5.38;;;7.30;99.90;;;;;;5064081;28;20068;-64
2023/12/15 19:31:09;;;;;;;17.03;5.73;;;7.20;99.90;;;;;;5061638;28;20064;-63
2023/12/15 19:33:36;;;;;;;22.33;5.93;;;7.20;99.90;;;;;;5068764;28;20098;-64
2023/12/15 19:36:01;;;;;;;;;;;7.20;99.90;;;;;;5063006;28;20450;-64
2023/12/15 19:38:27;;;;;;;16.02;4.75;;;7.10;99.90;;;;;;5063190;28;19921;-64
2023/12/15 19:40:52;;;;;;;27.63;6.23;;;7.10;99.90;;;;;;5069442;28;20043;-64
2023/12/15 19:43:18;;;;;;;24.93;6.63;;;7.10;99.90;;;;;;5070048;28;20053;-64
2023/12/15 19:45:43;;;;;;;28.73;7.13;;;7.10;99.90;;;;;;5070363;28;20653;-64
2023/12/15 19:48:09;;;;;;;23.10;6.53;;;7.00;99.90;;;;;;5070775;28;20040;-65
2023/12/15 19:50:35;;;;;;;25.07;7.43;;;7.00;99.90;;;;;;5074067;28;20275;-64
2023/12/15 19:53:00;;;;;;;33.95;6.60;;;7.00;99.90;;;;;;5074586;28;20311;-63
2023/12/15 19:55:26;;;;;;;36.40;8.63;;;7.00;99.90;;;;;;5069236;28;20089;-64
2023/12/15 19:57:52;;;;;;;25.97;7.53;;;6.90;99.90;;;;;;5070308;28;20286;-64
2023/12/15 20:00:18;;;;;;;25.65;7.35;;;7.00;99.90;;;;;;5069677;28;20067;-64
2023/12/15 20:02:43;;;;;;;23.92;5.47;;;6.90;99.90;;;;;;5069525;28;20028;-64
2023/12/15 20:05:10;;;;;;;25.27;8.07;;;6.90;99.90;;;;;;5069141;28;20040;-64
2023/12/15 20:07:36;;;;;;;28.08;6.55;;;6.90;99.90;;;;;;5069277;28;20490;-64
2023/12/15 20:10:03;;;;;;;25.17;6.03;;;6.90;99.90;;;;;;5070138;28;20111;-64
2023/12/15 20:12:31;;;;;;;22.55;4.95;;;6.90;99.90;;;;;;5069772;28;20040;-64
2023/12/15 20:14:57;;;;;;;33.83;5.47;;;6.90;99.90;;;;;;5069828;28;20070;-65
2023/12/15 20:17:24;;;;;;;24.95;5.22;;;6.90;99.90;;;;;;5051556;28;20052;-65
2023/12/15 20:19:50;;;;;;;21.38;4.90;;;6.90;99.90;;;;;;5069551;28;20111;-64
2023/12/15 20:22:15;;;;;;;21.90;5.07;;;7.00;99.90;;;;;;5069088;28;20554;-64
2023/12/15 20:24:41;;;;;;;23.27;5.77;;;7.00;99.90;;;;;;5070186;28;20230;-65
2023/12/15 20:27:10;;;;;;;23.53;5.07;;;7.00;99.90;;;;;;5069586;28;20043;-64
2023/12/15 20:29:36;;;;;;;17.33;5.47;;;7.00;99.90;;;;;;5067621;28;20047;-64
2023/12/15 20:32:01;;;;;;;22.25;5.90;;;7.00;99.90;;;;;;5068410;28;20029;-64
2023/12/15 20:34:28;;;;;;;15.83;4.30;;;7.00;99.90;;;;;;5068553;28;20056;-64
2023/12/15 20:36:53;;;;;;;24.10;5.65;;;7.10;99.90;;;;;;5069411;28;20374;-65
2023/12/15 20:39:19;;;;;;;23.80;6.20;;;7.10;99.90;;;;;;5068969;28;20131;-65
2023/12/15 20:41:45;;;;;;;25.80;5.37;;;7.20;99.90;;;;;;5061933;28;20055;-63
2023/12/15 20:44:11;;;;;;;27.97;5.93;;;7.20;99.90;;;;;;5048189;28;20094;-64
2023/12/15 20:46:36;;;;;;;19.30;5.22;;;7.20;99.90;;;;;;5033764;28;20275;-63
2023/12/15 20:49:03;;;;;;;27.70;6.70;;;7.20;99.90;;;;;;5068687;28;20032;-64
2023/12/15 20:51:29;;;;;;;33.78;7.70;;;7.30;99.90;;;;;;5050810;28;20037;-63
2023/12/15 20:53:54;;;;;;;27.20;5.22;;;7.30;99.90;;;;;;5049800;28;20031;-64
2023/12/15 20:56:24;;;;;;;31.33;5.90;;;7.30;99.90;;;;;;5065805;28;20123;-65
2023/12/15 20:58:50;;;;;;;34.00;7.05;;;7.30;99.90;;;;;;5060203;28;20279;-65
2023/12/15 21:01:16;;;;;;;21.27;5.90;;;7.40;99.90;;;;;;5061677;28;20067;-65
2023/12/15 21:03:41;;;;;;;25.73;4.73;;;7.40;99.90;;;;;;5062998;28;20287;-65
2023/12/15 21:06:19;;;;;;;23.13;5.43;;;7.40;99.90;;;;;;5063270;28;20111;-65
2023/12/15 21:08:46;;;;;;;31.08;5.90;;;7.40;99.90;;;;;;5060619;28;20047;-65
2023/12/15 21:11:11;;;;;;;29.42;4.80;;;7.50;99.90;;;;;;5063155;28;20082;-65
2023/12/15 21:13:39;;;;;;;24.47;6.00;;;7.50;99.90;;;;;;5062790;28;20081;-65
2023/12/15 21:16:06;;;;;;;24.23;5.22;;;7.50;99.90;;;;;;5061961;28;20302;-63
2023/12/15 21:18:31;;;;;;;22.83;5.25;;;7.50;99.90;;;;;;5062872;28;20043;-64
2023/12/15 21:20:57;;;;;;;31.50;5.63;;;7.50;99.90;;;;;;5061132;28;20041;-64
2023/12/15 21:23:22;;;;;;;24.10;4.90;;;7.60;99.90;;;;;;5063028;28;20071;-64
2023/12/15 21:25:48;;;;;;;22.80;5.30;;;7.60;99.90;;;;;;5062630;28;20463;-65
2023/12/15 21:28:14;;;;;;;18.87;5.20;;;7.60;99.90;;;;;;5061230;28;20051;-63
2023/12/15 21:30:40;;;;;;;25.70;5.37;;;7.60;99.90;;;;;;5058653;28;20032;-64
2023/12/15 21:33:07;;;;;;;22.33;5.38;;;7.60;99.90;;;;;;5024779;28;20041;-64
2023/12/15 21:35:35;;;;;;;26.80;7.07;;;7.60;99.90;;;;;;5062831;28;20048;-63
2023/12/15 21:38:02;;;;;;;20.75;5.00;;;7.60;99.90;;;;;;5058974;28;20515;-65
2023/12/15 21:40:29;;;;;;;21.95;5.35;;;7.60;99.90;;;;;;5063801;28;20068;-64
2023/12/15 21:42:55;;;;;;;23.05;4.95;;;7.60;99.90;;;;;;5063658;28;20078;-64
2023/12/15 21:45:21;;;;;;;20.38;5.05;;;7.60;99.90;;;;;;5066684;28;20060;-66
2023/12/15 21:47:47;;;;;;;15.10;4.25;;;7.60;99.90;;;;;;5066785;28;20119;-67
2023/12/15 21:50:12;;;;;;;20.90;5.47;;;7.60;99.90;;;;;;5067156;28;20071;-67
2023/12/15 21:52:38;;;;;;;20.67;6.03;;;7.60;99.90;;;;;;5065372;28;20036;-65
2023/12/15 21:55:05;;;;;;;22.20;4.85;;;7.60;99.90;;;;;;5046530;28;20599;-65
2023/12/15 21:57:32;;;;;;;;;;;7.60;99.90;;;;;;5066144;28;20548;-64
2023/12/15 21:59:58;;;;;;;19.55;5.20;;;7.70;99.90;;;;;;5066793;28;19920;-64
2023/12/15 22:02:24;;;;;;;26.25;5.53;;;7.70;99.90;;;;;;5064486;28;20119;-63
2023/12/15 22:04:50;;;;;;;19.23;4.50;;;7.70;99.90;;;;;;5068107;28;20339;-63
2023/12/15 22:07:16;;;;;;;19.20;3.40;;;7.70;99.90;;;;;;5048870;28;20115;-65
2023/12/15 22:09:41;;;;;;;14.02;5.25;;;7.70;99.90;;;;;;5048878;28;20044;-65
2023/12/15 22:12:08;;;;;;;20.75;4.60;;;7.70;99.90;;;;;;5040790;28;20123;-64
2023/12/15 22:14:34;;;;;;;17.30;4.32;;;7.60;99.90;;;;;;5064494;28;20392;-64
2023/12/15 22:17:00;;;;;;;15.50;3.50;;;7.70;99.90;;;;;;5058796;28;20592;-63
2023/12/15 22:19:25;;;;;;;15.00;3.78;;;7.70;99.90;;;;;;5066288;28;20044;-65
2023/12/15 22:21:51;;;;;;;10.50;4.60;;;7.70;99.90;;;;;;5065749;28;20399;-64
2023/12/15 22:24:17;;;;;;;11.10;3.70;;;7.70;99.90;;;;;;5069526;28;20130;-63
2023/12/15 22:26:47;;;;;;;16.77;3.57;;;7.70;99.90;;;;;;5069433;28;20036;-64
2023/12/15 22:29:13;;;;;;;14.20;3.75;;;7.70;99.90;;;;;;5069286;28;20564;-64
2023/12/15 22:31:43;;;;;;;13.98;3.67;;;7.70;99.90;;;;;;5069898;28;20032;-64
2023/12/15 22:34:11;;;;;;;13.15;4.13;;;7.70;99.90;;;;;;5065391;28;20045;-64
2023/12/15 22:36:40;;;;;;;15.75;3.17;;;7.70;99.90;;;;;;5070654;28;20036;-64
2023/12/15 22:39:06;;;;;;;17.60;3.95;;;7.70;99.90;;;;;;5064729;28;20032;-63
2023/12/15 22:41:32;;;;;;;17.52;3.38;;;7.70;99.90;;;;;;5073778;28;20395;-64
2023/12/15 22:43:59;;;;;;;18.05;4.10;;;7.70;99.90;;;;;;5052012;28;20032;-64
2023/12/15 22:46:25;;;;;;;12.77;3.58;;;7.70;99.90;;;;;;5066259;28;20509;-63
2023/12/15 22:48:50;;;;;;;12.88;4.18;;;7.80;99.90;;;;;;5067302;28;20090;-64
2023/12/15 22:51:16;;;;;;;20.87;3.67;;;7.80;99.90;;;;;;5068049;28;20036;-65
2023/12/15 22:53:41;;;;;;;25.93;4.73;;;7.70;99.90;;;;;;5069288;28;20037;-64
2023/12/15 22:56:08;;;;;;;19.23;3.07;;;7.70;99.90;;;;;;5063236;28;20040;-66
2023/12/15 22:58:34;;;;;;;13.77;3.88;;;7.80;99.90;;;;;;5064671;28;20131;-67
2023/12/15 23:01:00;;;;;;;10.83;2.87;;;7.80;99.90;;;;;;5068977;28;20119;-66
2023/12/15 23:03:26;;;;;;;15.35;3.78;;;7.80;99.90;;;;;;5064397;28;20101;-66
2023/12/15 23:05:51;;;;;;;20.38;4.25;;;7.80;99.90;;;;;;5063081;28;20051;-64
2023/12/15 23:08:17;;;;;;;14.77;3.33;;;7.80;99.90;;;;;;5059385;28;20036;-65
2023/12/15 23:10:42;;;;;;;14.17;2.97;;;7.80;99.90;;;;;;5064087;28;20426;-65
2023/12/15 23:13:08;;;;;;;11.53;3.10;;;7.80;99.90;;;;;;5049282;28;20411;-64
2023/12/15 23:15:34;;;;;;;14.93;4.00;;;7.80;99.90;;;;;;5063949;28;20518;-64
2023/12/15 23:18:00;;;;;;;17.75;3.58;;;7.80;99.90;;;;;;5066933;28;20033;-63
2023/12/15 23:20:25;;;;;;;14.27;3.13;;;7.80;99.90;;;;;;5066716;28;20556;-65
2023/12/15 23:22:51;;;;;;;16.65;3.67;;;7.80;99.90;;;;;;5065600;28;20036;-65
2023/12/15 23:25:17;;;;;;;7.87;2.13;;;7.80;99.90;;;;;;5068396;28;20419;-65
2023/12/15 23:27:43;;;;;;;9.40;2.72;;;7.80;99.90;;;;;;5063599;28;20071;-64
2023/12/15 23:30:09;;;;;;;14.52;3.30;;;7.80;99.90;;;;;;5070340;28;20427;-64
2023/12/15 23:32:35;;;;;;;20.20;3.10;;;7.80;99.90;;;;;;5068639;28;20597;-64
2023/12/15 23:35:00;;;;;;;15.15;2.92;;;7.80;99.90;;;;;;5064044;28;20155;-64
2023/12/15 23:37:26;;;;;;;8.25;2.45;;;7.80;99.90;;;;;;5057687;28;20037;-64
2023/12/15 23:39:54;;;;;;;11.73;2.57;;;7.90;99.90;;;;;;5067881;28;20112;-63
2023/12/15 23:42:19;;;;;;;11.65;3.35;;;7.80;99.90;;;;;;5068365;28;20386;-64
2023/12/15 23:44:45;;;;;;;12.00;2.53;;;7.80;99.90;;;;;;5069432;28;20120;-64
2023/12/15 23:47:11;;;;;;;16.48;3.58;;;7.80;99.90;;;;;;5068190;28;20298;-64
2023/12/15 23:49:38;;;;;;;16.20;3.60;;;7.80;99.90;;;;;;5066843;28;20048;-64
2023/12/15 23:52:03;;;;;;;13.05;2.40;;;7.80;99.90;;;;;;5069138;28;20364;-64
2023/12/15 23:54:29;;;;;;;8.18;2.33;;;7.80;99.90;;;;;;5064237;28;20040;-65
2023/12/15 23:56:55;;;;;;;15.48;3.33;;;7.80;99.90;;;;;;5068271;28;20238;-63
2023/12/15 23:59:20;;;;;;;20.98;3.05;;;7.80;99.90;;;;;;5068459;28;20479;-64
